sensor_id;sensor_type;location;lat;lon;timestamp;temperature;humidity
80931;DHT22;70388;42.698;23.324;2024-02-21T00:02:19;7.50;80.80
80931;DHT22;70388;42.698;23.324;2024-02-21T00:04:45;7.50;80.80
80931;DHT22;70388;42.698;23.324;2024-02-21T00:07:11;7.60;80.90
80931;DHT22;70388;42.698;23.324;2024-02-21T00:09:37;7.50;80.80
80931;DHT22;70388;42.698;23.324;2024-02-21T00:12:03;7.40;81.10
80931;DHT22;70388;42.698;23.324;2024-02-21T00:14:29;7.50;81.10
80931;DHT22;70388;42.698;23.324;2024-02-21T00:16:55;7.40;82.10
80931;DHT22;70388;42.698;23.324;2024-02-21T00:19:21;7.40;81.40
80931;DHT22;70388;42.698;23.324;2024-02-21T00:21:47;7.40;81.00
80931;DHT22;70388;42.698;23.324;2024-02-21T00:24:13;7.50;80.80
80931;DHT22;70388;42.698;23.324;2024-02-21T00:26:38;7.50;81.00
80931;DHT22;70388;42.698;23.324;2024-02-21T00:29:04;7.50;80.90
80931;DHT22;70388;42.698;23.324;2024-02-21T00:31:30;7.50;80.30
80931;DHT22;70388;42.698;23.324;2024-02-21T00:33:56;7.60;80.60
80931;DHT22;70388;42.698;23.324;2024-02-21T00:36:23;7.50;80.80
80931;DHT22;70388;42.698;23.324;2024-02-21T00:38:49;7.40;81.10
80931;DHT22;70388;42.698;23.324;2024-02-21T00:41:15;7.50;81.00
80931;DHT22;70388;42.698;23.324;2024-02-21T00:43:41;7.40;81.30
80931;DHT22;70388;42.698;23.324;2024-02-21T00:46:07;7.40;81.00
80931;DHT22;70388;42.698;23.324;2024-02-21T00:48:33;7.40;81.10
80931;DHT22;70388;42.698;23.324;2024-02-21T00:50:59;7.40;81.10
80931;DHT22;70388;42.698;23.324;2024-02-21T00:53:25;7.30;81.60
80931;DHT22;70388;42.698;23.324;2024-02-21T00:55:51;7.20;81.80
80931;DHT22;70388;42.698;23.324;2024-02-21T00:58:17;7.30;82.00
80931;DHT22;70388;42.698;23.324;2024-02-21T01:00:42;7.30;82.00
80931;DHT22;70388;42.698;23.324;2024-02-21T01:03:08;7.30;81.80
80931;DHT22;70388;42.698;23.324;2024-02-21T01:05:34;7.30;81.60
80931;DHT22;70388;42.698;23.324;2024-02-21T01:07:59;7.30;81.70
80931;DHT22;70388;42.698;23.324;2024-02-21T01:10:25;7.30;81.90
80931;DHT22;70388;42.698;23.324;2024-02-21T01:12:51;7.20;82.30
80931;DHT22;70388;42.698;23.324;2024-02-21T01:15:17;7.30;82.40
80931;DHT22;70388;42.698;23.324;2024-02-21T01:17:42;7.40;81.90
80931;DHT22;70388;42.698;23.324;2024-02-21T01:20:08;7.40;81.50
80931;DHT22;70388;42.698;23.324;2024-02-21T01:22:34;7.50;81.10
80931;DHT22;70388;42.698;23.324;2024-02-21T01:25:00;7.50;81.10
80931;DHT22;70388;42.698;23.324;2024-02-21T01:27:26;7.40;81.20
80931;DHT22;70388;42.698;23.324;2024-02-21T01:29:52;7.40;81.20
80931;DHT22;70388;42.698;23.324;2024-02-21T01:32:18;7.30;81.70
80931;DHT22;70388;42.698;23.324;2024-02-21T01:34:44;7.40;81.60
80931;DHT22;70388;42.698;23.324;2024-02-21T01:37:10;7.40;81.50
80931;DHT22;70388;42.698;23.324;2024-02-21T01:39:35;7.30;81.50
80931;DHT22;70388;42.698;23.324;2024-02-21T01:42:01;7.40;81.20
80931;DHT22;70388;42.698;23.324;2024-02-21T01:44:27;7.40;81.30
80931;DHT22;70388;42.698;23.324;2024-02-21T01:46:53;7.40;81.10
80931;DHT22;70388;42.698;23.324;2024-02-21T01:49:20;7.40;81.10
80931;DHT22;70388;42.698;23.324;2024-02-21T01:51:46;7.40;81.00
80931;DHT22;70388;42.698;23.324;2024-02-21T01:54:14;7.40;80.80
80931;DHT22;70388;42.698;23.324;2024-02-21T01:56:42;7.50;80.50
80931;DHT22;70388;42.698;23.324;2024-02-21T01:59:08;7.50;80.30
80931;DHT22;70388;42.698;23.324;2024-02-21T02:01:34;7.50;80.10
80931;DHT22;70388;42.698;23.324;2024-02-21T02:04:00;7.50;79.70
80931;DHT22;70388;42.698;23.324;2024-02-21T02:06:26;7.60;79.40
80931;DHT22;70388;42.698;23.324;2024-02-21T02:08:53;7.60;79.10
80931;DHT22;70388;42.698;23.324;2024-02-21T02:11:20;7.70;78.90
80931;DHT22;70388;42.698;23.324;2024-02-21T02:13:45;7.60;78.60
80931;DHT22;70388;42.698;23.324;2024-02-21T02:16:11;7.60;79.00
80931;DHT22;70388;42.698;23.324;2024-02-21T02:18:37;7.60;78.90
80931;DHT22;70388;42.698;23.324;2024-02-21T02:21:05;7.60;78.90
80931;DHT22;70388;42.698;23.324;2024-02-21T02:23:35;7.60;79.00
80931;DHT22;70388;42.698;23.324;2024-02-21T02:26:01;7.50;79.20
80931;DHT22;70388;42.698;23.324;2024-02-21T02:28:27;7.40;79.30
80931;DHT22;70388;42.698;23.324;2024-02-21T02:30:53;7.30;80.10
80931;DHT22;70388;42.698;23.324;2024-02-21T02:33:19;7.30;80.30
80931;DHT22;70388;42.698;23.324;2024-02-21T02:35:45;7.30;80.40
80931;DHT22;70388;42.698;23.324;2024-02-21T02:38:11;7.30;80.50
80931;DHT22;70388;42.698;23.324;2024-02-21T02:40:39;7.30;80.40
80931;DHT22;70388;42.698;23.324;2024-02-21T02:43:06;7.20;80.70
80931;DHT22;70388;42.698;23.324;2024-02-21T02:45:32;7.20;80.80
80931;DHT22;70388;42.698;23.324;2024-02-21T02:47:58;7.30;80.50
80931;DHT22;70388;42.698;23.324;2024-02-21T02:50:25;7.40;80.30
80931;DHT22;70388;42.698;23.324;2024-02-21T02:52:51;7.40;80.00
80931;DHT22;70388;42.698;23.324;2024-02-21T02:55:17;7.40;79.80
80931;DHT22;70388;42.698;23.324;2024-02-21T02:57:43;7.50;79.90
80931;DHT22;70388;42.698;23.324;2024-02-21T03:00:10;7.50;79.90
80931;DHT22;70388;42.698;23.324;2024-02-21T03:02:38;7.50;79.70
80931;DHT22;70388;42.698;23.324;2024-02-21T03:05:12;7.50;79.60
80931;DHT22;70388;42.698;23.324;2024-02-21T03:07:39;7.50;79.50
80931;DHT22;70388;42.698;23.324;2024-02-21T03:10:05;7.50;79.50
80931;DHT22;70388;42.698;23.324;2024-02-21T03:12:30;7.50;79.60
80931;DHT22;70388;42.698;23.324;2024-02-21T03:14:56;7.40;79.90
80931;DHT22;70388;42.698;23.324;2024-02-21T03:17:22;7.40;79.90
80931;DHT22;70388;42.698;23.324;2024-02-21T03:19:48;7.40;79.90
80931;DHT22;70388;42.698;23.324;2024-02-21T03:22:15;7.40;80.20
80931;DHT22;70388;42.698;23.324;2024-02-21T03:24:42;7.40;80.40
80931;DHT22;70388;42.698;23.324;2024-02-21T03:27:07;7.40;80.30
80931;DHT22;70388;42.698;23.324;2024-02-21T03:29:34;7.50;79.90
80931;DHT22;70388;42.698;23.324;2024-02-21T03:31:59;7.50;79.70
80931;DHT22;70388;42.698;23.324;2024-02-21T03:34:25;7.50;79.60
80931;DHT22;70388;42.698;23.324;2024-02-21T03:36:51;7.50;79.90
80931;DHT22;70388;42.698;23.324;2024-02-21T03:39:17;7.50;80.00
80931;DHT22;70388;42.698;23.324;2024-02-21T03:41:42;7.40;79.80
80931;DHT22;70388;42.698;23.324;2024-02-21T03:44:09;7.50;79.70
80931;DHT22;70388;42.698;23.324;2024-02-21T03:46:34;7.50;79.80
80931;DHT22;70388;42.698;23.324;2024-02-21T03:49:01;7.60;79.50
80931;DHT22;70388;42.698;23.324;2024-02-21T03:51:26;7.60;79.00
80931;DHT22;70388;42.698;23.324;2024-02-21T03:53:52;7.60;79.00
80931;DHT22;70388;42.698;23.324;2024-02-21T03:56:18;7.60;79.10
80931;DHT22;70388;42.698;23.324;2024-02-21T03:58:43;7.60;78.90
80931;DHT22;70388;42.698;23.324;2024-02-21T04:01:09;7.70;78.40
80931;DHT22;70388;42.698;23.324;2024-02-21T04:03:35;7.60;78.50
80931;DHT22;70388;42.698;23.324;2024-02-21T04:06:01;7.60;78.40
80931;DHT22;70388;42.698;23.324;2024-02-21T04:08:27;7.60;78.40
80931;DHT22;70388;42.698;23.324;2024-02-21T04:10:52;7.60;78.20
80931;DHT22;70388;42.698;23.324;2024-02-21T04:13:18;7.70;78.20
80931;DHT22;70388;42.698;23.324;2024-02-21T04:15:44;7.60;78.30
80931;DHT22;70388;42.698;23.324;2024-02-21T04:18:10;7.50;78.40
80931;DHT22;70388;42.698;23.324;2024-02-21T04:20:35;7.40;78.40
80931;DHT22;70388;42.698;23.324;2024-02-21T04:23:01;7.40;78.70
80931;DHT22;70388;42.698;23.324;2024-02-21T04:25:27;7.40;79.00
80931;DHT22;70388;42.698;23.324;2024-02-21T04:27:53;7.40;78.90
80931;DHT22;70388;42.698;23.324;2024-02-21T04:30:18;7.40;78.80
80931;DHT22;70388;42.698;23.324;2024-02-21T04:32:44;7.40;78.90
80931;DHT22;70388;42.698;23.324;2024-02-21T04:35:10;7.40;78.80
80931;DHT22;70388;42.698;23.324;2024-02-21T04:37:36;7.40;78.70
80931;DHT22;70388;42.698;23.324;2024-02-21T04:40:02;7.40;78.60
80931;DHT22;70388;42.698;23.324;2024-02-21T04:42:27;7.50;78.60
80931;DHT22;70388;42.698;23.324;2024-02-21T04:44:53;7.40;78.90
80931;DHT22;70388;42.698;23.324;2024-02-21T04:47:19;7.40;78.70
80931;DHT22;70388;42.698;23.324;2024-02-21T04:49:45;7.50;78.60
80931;DHT22;70388;42.698;23.324;2024-02-21T04:52:12;7.50;78.70
80931;DHT22;70388;42.698;23.324;2024-02-21T04:54:37;7.50;78.50
80931;DHT22;70388;42.698;23.324;2024-02-21T04:57:04;7.50;78.60
80931;DHT22;70388;42.698;23.324;2024-02-21T04:59:30;7.50;78.60
80931;DHT22;70388;42.698;23.324;2024-02-21T05:01:56;7.60;78.40
80931;DHT22;70388;42.698;23.324;2024-02-21T05:04:21;7.50;78.30
80931;DHT22;70388;42.698;23.324;2024-02-21T05:06:47;7.60;78.20
80931;DHT22;70388;42.698;23.324;2024-02-21T05:09:14;7.60;78.10
80931;DHT22;70388;42.698;23.324;2024-02-21T05:11:40;7.60;78.00
80931;DHT22;70388;42.698;23.324;2024-02-21T05:14:05;7.50;78.40
80931;DHT22;70388;42.698;23.324;2024-02-21T05:16:32;7.40;78.70
80931;DHT22;70388;42.698;23.324;2024-02-21T05:18:58;7.40;79.20
80931;DHT22;70388;42.698;23.324;2024-02-21T05:21:27;7.40;79.20
80931;DHT22;70388;42.698;23.324;2024-02-21T05:23:54;7.40;79.20
80931;DHT22;70388;42.698;23.324;2024-02-21T05:26:24;7.50;79.00
80931;DHT22;70388;42.698;23.324;2024-02-21T05:28:51;7.50;78.80
80931;DHT22;70388;42.698;23.324;2024-02-21T05:31:20;7.60;78.60
80931;DHT22;70388;42.698;23.324;2024-02-21T05:33:46;7.60;78.30
80931;DHT22;70388;42.698;23.324;2024-02-21T05:36:13;7.60;78.40
80931;DHT22;70388;42.698;23.324;2024-02-21T05:38:39;7.50;78.60
80931;DHT22;70388;42.698;23.324;2024-02-21T05:41:05;7.50;78.80
80931;DHT22;70388;42.698;23.324;2024-02-21T05:43:31;7.40;78.80
80931;DHT22;70388;42.698;23.324;2024-02-21T05:45:57;7.50;78.90
80931;DHT22;70388;42.698;23.324;2024-02-21T05:48:23;7.50;78.60
80931;DHT22;70388;42.698;23.324;2024-02-21T05:50:50;7.60;77.90
80931;DHT22;70388;42.698;23.324;2024-02-21T05:53:15;7.60;78.00
80931;DHT22;70388;42.698;23.324;2024-02-21T05:55:41;7.60;78.20
80931;DHT22;70388;42.698;23.324;2024-02-21T05:58:07;7.50;78.20
80931;DHT22;70388;42.698;23.324;2024-02-21T06:00:36;7.60;78.30
80931;DHT22;70388;42.698;23.324;2024-02-21T06:03:02;7.60;78.20
80931;DHT22;70388;42.698;23.324;2024-02-21T06:05:28;7.50;78.30
80931;DHT22;70388;42.698;23.324;2024-02-21T06:07:54;7.60;78.10
80931;DHT22;70388;42.698;23.324;2024-02-21T06:10:19;7.70;78.00
80931;DHT22;70388;42.698;23.324;2024-02-21T06:12:45;7.80;77.00
80931;DHT22;70388;42.698;23.324;2024-02-21T06:15:11;8.00;76.80
80931;DHT22;70388;42.698;23.324;2024-02-21T06:17:37;8.00;76.50
80931;DHT22;70388;42.698;23.324;2024-02-21T06:20:03;8.20;75.60
80931;DHT22;70388;42.698;23.324;2024-02-21T06:22:30;8.20;75.10
80931;DHT22;70388;42.698;23.324;2024-02-21T06:24:56;8.40;74.80
80931;DHT22;70388;42.698;23.324;2024-02-21T06:27:22;8.40;74.00
80931;DHT22;70388;42.698;23.324;2024-02-21T06:29:47;8.40;73.80
80931;DHT22;70388;42.698;23.324;2024-02-21T06:32:13;8.50;73.80
80931;DHT22;70388;42.698;23.324;2024-02-21T06:34:39;8.50;73.60
80931;DHT22;70388;42.698;23.324;2024-02-21T06:37:04;8.40;73.80
80931;DHT22;70388;42.698;23.324;2024-02-21T06:39:30;8.30;74.20
80931;DHT22;70388;42.698;23.324;2024-02-21T06:41:56;8.30;74.10
80931;DHT22;70388;42.698;23.324;2024-02-21T06:44:22;8.40;74.20
80931;DHT22;70388;42.698;23.324;2024-02-21T06:46:48;8.50;73.70
80931;DHT22;70388;42.698;23.324;2024-02-21T06:49:14;8.60;72.90
80931;DHT22;70388;42.698;23.324;2024-02-21T06:51:43;8.70;72.30
80931;DHT22;70388;42.698;23.324;2024-02-21T06:54:09;8.70;72.20
80931;DHT22;70388;42.698;23.324;2024-02-21T06:56:39;8.80;72.50
80931;DHT22;70388;42.698;23.324;2024-02-21T06:59:05;9.00;71.90
80931;DHT22;70388;42.698;23.324;2024-02-21T07:01:31;9.20;71.30
80931;DHT22;70388;42.698;23.324;2024-02-21T07:03:57;9.30;71.00
80931;DHT22;70388;42.698;23.324;2024-02-21T07:06:23;9.40;70.50
80931;DHT22;70388;42.698;23.324;2024-02-21T07:08:49;9.60;70.10
80931;DHT22;70388;42.698;23.324;2024-02-21T07:11:15;9.70;69.90
80931;DHT22;70388;42.698;23.324;2024-02-21T07:13:41;9.80;68.80
80931;DHT22;70388;42.698;23.324;2024-02-21T07:16:07;9.90;68.70
80931;DHT22;70388;42.698;23.324;2024-02-21T07:18:33;9.90;68.50
80931;DHT22;70388;42.698;23.324;2024-02-21T07:20:59;9.90;68.60
80931;DHT22;70388;42.698;23.324;2024-02-21T07:23:25;9.80;68.70
80931;DHT22;70388;42.698;23.324;2024-02-21T07:25:51;9.80;68.90
80931;DHT22;70388;42.698;23.324;2024-02-21T07:28:17;9.90;68.80
80931;DHT22;70388;42.698;23.324;2024-02-21T07:30:43;10.00;68.40
80931;DHT22;70388;42.698;23.324;2024-02-21T07:33:09;10.00;68.30
80931;DHT22;70388;42.698;23.324;2024-02-21T07:35:35;10.10;68.30
80931;DHT22;70388;42.698;23.324;2024-02-21T07:38:04;10.10;68.00
80931;DHT22;70388;42.698;23.324;2024-02-21T07:40:30;10.20;67.70
80931;DHT22;70388;42.698;23.324;2024-02-21T07:42:56;10.10;67.90
80931;DHT22;70388;42.698;23.324;2024-02-21T07:45:22;10.00;68.20
80931;DHT22;70388;42.698;23.324;2024-02-21T07:47:50;9.90;68.70
80931;DHT22;70388;42.698;23.324;2024-02-21T07:50:16;10.10;68.50
80931;DHT22;70388;42.698;23.324;2024-02-21T07:52:42;10.30;68.10
80931;DHT22;70388;42.698;23.324;2024-02-21T07:55:08;10.40;67.40
80931;DHT22;70388;42.698;23.324;2024-02-21T07:57:36;10.50;67.10
80931;DHT22;70388;42.698;23.324;2024-02-21T08:00:02;10.60;66.80
80931;DHT22;70388;42.698;23.324;2024-02-21T08:02:29;10.80;66.70
80931;DHT22;70388;42.698;23.324;2024-02-21T08:04:55;11.00;66.10
80931;DHT22;70388;42.698;23.324;2024-02-21T08:07:21;11.10;65.30
80931;DHT22;70388;42.698;23.324;2024-02-21T08:09:47;11.20;65.20
80931;DHT22;70388;42.698;23.324;2024-02-21T08:12:12;11.40;64.70
80931;DHT22;70388;42.698;23.324;2024-02-21T08:14:38;11.40;64.00
80931;DHT22;70388;42.698;23.324;2024-02-21T08:17:04;11.50;63.80
80931;DHT22;70388;42.698;23.324;2024-02-21T08:19:30;11.40;63.90
80931;DHT22;70388;42.698;23.324;2024-02-21T08:21:56;11.40;64.30
80931;DHT22;70388;42.698;23.324;2024-02-21T08:24:22;11.50;64.00
80931;DHT22;70388;42.698;23.324;2024-02-21T08:26:48;11.80;63.30
80931;DHT22;70388;42.698;23.324;2024-02-21T08:29:14;12.70;61.00
80931;DHT22;70388;42.698;23.324;2024-02-21T08:31:40;13.40;58.30
80931;DHT22;70388;42.698;23.324;2024-02-21T08:34:06;13.70;57.60
80931;DHT22;70388;42.698;23.324;2024-02-21T08:36:35;13.70;57.20
80931;DHT22;70388;42.698;23.324;2024-02-21T08:39:02;13.90;56.80
80931;DHT22;70388;42.698;23.324;2024-02-21T08:41:31;14.20;56.00
80931;DHT22;70388;42.698;23.324;2024-02-21T08:43:56;14.00;56.00
80931;DHT22;70388;42.698;23.324;2024-02-21T08:46:26;13.70;57.20
80931;DHT22;70388;42.698;23.324;2024-02-21T08:48:52;13.50;57.30
80931;DHT22;70388;42.698;23.324;2024-02-21T08:51:18;13.20;57.60
80931;DHT22;70388;42.698;23.324;2024-02-21T08:53:48;13.00;58.30
80931;DHT22;70388;42.698;23.324;2024-02-21T08:56:13;12.80;58.70
80931;DHT22;70388;42.698;23.324;2024-02-21T08:58:40;12.60;59.10
80931;DHT22;70388;42.698;23.324;2024-02-21T09:01:06;12.30;60.00
80931;DHT22;70388;42.698;23.324;2024-02-21T09:03:39;12.20;60.40
80931;DHT22;70388;42.698;23.324;2024-02-21T09:06:06;11.90;61.10
80931;DHT22;70388;42.698;23.324;2024-02-21T09:08:32;11.90;61.40
80931;DHT22;70388;42.698;23.324;2024-02-21T09:11:00;12.00;60.70
80931;DHT22;70388;42.698;23.324;2024-02-21T09:13:26;12.20;60.70
80931;DHT22;70388;42.698;23.324;2024-02-21T09:15:52;12.10;60.20
80931;DHT22;70388;42.698;23.324;2024-02-21T09:18:21;12.00;60.70
80931;DHT22;70388;42.698;23.324;2024-02-21T09:20:47;12.10;60.00
80931;DHT22;70388;42.698;23.324;2024-02-21T09:23:13;11.90;60.20
80931;DHT22;70388;42.698;23.324;2024-02-21T09:25:39;11.90;60.80
80931;DHT22;70388;42.698;23.324;2024-02-21T09:28:05;12.00;60.80
80931;DHT22;70388;42.698;23.324;2024-02-21T09:30:31;12.40;59.80
80931;DHT22;70388;42.698;23.324;2024-02-21T09:32:58;12.60;58.90
80931;DHT22;70388;42.698;23.324;2024-02-21T09:35:28;12.80;58.20
80931;DHT22;70388;42.698;23.324;2024-02-21T09:37:54;12.90;57.60
80931;DHT22;70388;42.698;23.324;2024-02-21T09:40:20;13.40;56.30
80931;DHT22;70388;42.698;23.324;2024-02-21T09:42:47;14.00;55.10
80931;DHT22;70388;42.698;23.324;2024-02-21T09:45:21;14.90;53.20
80931;DHT22;70388;42.698;23.324;2024-02-21T09:50:34;15.30;51.20
80931;DHT22;70388;42.698;23.324;2024-02-21T09:53:01;15.50;51.60
80931;DHT22;70388;42.698;23.324;2024-02-21T09:55:29;15.80;50.40
80931;DHT22;70388;42.698;23.324;2024-02-21T09:57:58;16.20;49.40
80931;DHT22;70388;42.698;23.324;2024-02-21T10:00:24;16.40;48.80
80931;DHT22;70388;42.698;23.324;2024-02-21T10:02:50;17.30;47.80
80931;DHT22;70388;42.698;23.324;2024-02-21T10:05:16;17.70;46.00
80931;DHT22;70388;42.698;23.324;2024-02-21T10:07:43;17.80;45.50
80931;DHT22;70388;42.698;23.324;2024-02-21T10:10:09;18.20;44.80
80931;DHT22;70388;42.698;23.324;2024-02-21T10:12:35;17.70;44.70
80931;DHT22;70388;42.698;23.324;2024-02-21T10:15:05;17.00;46.40
80931;DHT22;70388;42.698;23.324;2024-02-21T10:17:35;16.60;47.40
80931;DHT22;70388;42.698;23.324;2024-02-21T10:20:09;15.90;48.50
80931;DHT22;70388;42.698;23.324;2024-02-21T10:22:35;15.00;49.80
80931;DHT22;70388;42.698;23.324;2024-02-21T10:25:14;14.40;51.40
80931;DHT22;70388;42.698;23.324;2024-02-21T10:27:40;14.10;53.60
80931;DHT22;70388;42.698;23.324;2024-02-21T10:30:07;13.90;53.00
80931;DHT22;70388;42.698;23.324;2024-02-21T10:32:33;13.60;53.70
80931;DHT22;70388;42.698;23.324;2024-02-21T10:35:03;13.30;54.10
80931;DHT22;70388;42.698;23.324;2024-02-21T10:37:34;12.90;54.40
80931;DHT22;70388;42.698;23.324;2024-02-21T10:40:00;12.80;54.70
80931;DHT22;70388;42.698;23.324;2024-02-21T10:42:31;12.80;55.10
80931;DHT22;70388;42.698;23.324;2024-02-21T10:45:01;12.70;55.80
80931;DHT22;70388;42.698;23.324;2024-02-21T10:47:32;12.60;56.20
80931;DHT22;70388;42.698;23.324;2024-02-21T10:50:03;12.50;56.50
80931;DHT22;70388;42.698;23.324;2024-02-21T10:52:51;12.60;56.20
80931;DHT22;70388;42.698;23.324;2024-02-21T10:55:29;12.60;55.80
80931;DHT22;70388;42.698;23.324;2024-02-21T10:57:57;12.70;55.40
80931;DHT22;70388;42.698;23.324;2024-02-21T11:00:24;13.00;54.20
80931;DHT22;70388;42.698;23.324;2024-02-21T11:02:59;13.00;54.30
80931;DHT22;70388;42.698;23.324;2024-02-21T11:05:25;13.20;53.80
80931;DHT22;70388;42.698;23.324;2024-02-21T11:07:53;13.10;53.70
80931;DHT22;70388;42.698;23.324;2024-02-21T11:10:26;13.10;53.10
80931;DHT22;70388;42.698;23.324;2024-02-21T11:13:08;13.10;52.90
80931;DHT22;70388;42.698;23.324;2024-02-21T11:15:34;13.00;51.90
80931;DHT22;70388;42.698;23.324;2024-02-21T11:18:00;12.90;52.00
80931;DHT22;70388;42.698;23.324;2024-02-21T11:20:33;12.70;52.00
80931;DHT22;70388;42.698;23.324;2024-02-21T11:22:59;12.70;52.00
80931;DHT22;70388;42.698;23.324;2024-02-21T11:25:26;12.60;51.40
80931;DHT22;70388;42.698;23.324;2024-02-21T11:28:05;12.60;51.70
80931;DHT22;70388;42.698;23.324;2024-02-21T11:30:35;12.60;51.90
80931;DHT22;70388;42.698;23.324;2024-02-21T11:33:06;12.40;52.10
80931;DHT22;70388;42.698;23.324;2024-02-21T11:35:33;12.40;52.20
80931;DHT22;70388;42.698;23.324;2024-02-21T11:38:12;12.60;52.20
80931;DHT22;70388;42.698;23.324;2024-02-21T11:40:46;12.60;52.40
80931;DHT22;70388;42.698;23.324;2024-02-21T11:43:12;12.70;51.90
80931;DHT22;70388;42.698;23.324;2024-02-21T11:45:38;12.90;52.00
80931;DHT22;70388;42.698;23.324;2024-02-21T11:48:07;13.00;52.10
80931;DHT22;70388;42.698;23.324;2024-02-21T11:50:35;13.10;52.10
80931;DHT22;70388;42.698;23.324;2024-02-21T11:53:02;13.00;51.50
80931;DHT22;70388;42.698;23.324;2024-02-21T11:55:28;13.20;51.30
80931;DHT22;70388;42.698;23.324;2024-02-21T11:57:54;13.20;51.10
80931;DHT22;70388;42.698;23.324;2024-02-21T12:00:20;13.10;51.50
80931;DHT22;70388;42.698;23.324;2024-02-21T12:02:46;12.90;52.60
80931;DHT22;70388;42.698;23.324;2024-02-21T12:05:12;12.90;51.90
80931;DHT22;70388;42.698;23.324;2024-02-21T12:07:39;12.90;52.20
80931;DHT22;70388;42.698;23.324;2024-02-21T12:10:12;12.90;52.40
80931;DHT22;70388;42.698;23.324;2024-02-21T12:12:39;12.70;52.60
80931;DHT22;70388;42.698;23.324;2024-02-21T12:15:05;12.70;52.90
80931;DHT22;70388;42.698;23.324;2024-02-21T12:17:39;12.90;52.90
80931;DHT22;70388;42.698;23.324;2024-02-21T12:20:05;12.70;53.00
80931;DHT22;70388;42.698;23.324;2024-02-21T12:22:35;12.40;53.10
80931;DHT22;70388;42.698;23.324;2024-02-21T12:25:26;12.40;53.40
80931;DHT22;70388;42.698;23.324;2024-02-21T12:27:54;12.40;53.50
80931;DHT22;70388;42.698;23.324;2024-02-21T12:30:22;12.30;53.50
80931;DHT22;70388;42.698;23.324;2024-02-21T12:32:47;12.20;53.80
80931;DHT22;70388;42.698;23.324;2024-02-21T12:35:14;12.20;54.00
80931;DHT22;70388;42.698;23.324;2024-02-21T12:37:40;12.30;53.40
80931;DHT22;70388;42.698;23.324;2024-02-21T12:40:08;12.30;53.50
80931;DHT22;70388;42.698;23.324;2024-02-21T12:42:34;12.40;53.20
80931;DHT22;70388;42.698;23.324;2024-02-21T12:45:02;12.50;53.00
80931;DHT22;70388;42.698;23.324;2024-02-21T12:47:29;12.40;54.00
80931;DHT22;70388;42.698;23.324;2024-02-21T12:49:55;12.30;54.60
80931;DHT22;70388;42.698;23.324;2024-02-21T12:52:21;12.20;55.30
80931;DHT22;70388;42.698;23.324;2024-02-21T12:54:47;12.30;55.80
80931;DHT22;70388;42.698;23.324;2024-02-21T12:57:13;12.20;57.10
80931;DHT22;70388;42.698;23.324;2024-02-21T12:59:39;12.20;57.50
80931;DHT22;70388;42.698;23.324;2024-02-21T13:02:05;12.20;57.90
80931;DHT22;70388;42.698;23.324;2024-02-21T13:04:31;12.10;57.10
80931;DHT22;70388;42.698;23.324;2024-02-21T13:06:57;11.80;58.40
80931;DHT22;70388;42.698;23.324;2024-02-21T13:09:22;11.60;59.50
80931;DHT22;70388;42.698;23.324;2024-02-21T13:11:48;11.50;58.90
80931;DHT22;70388;42.698;23.324;2024-02-21T13:14:16;11.40;59.40
80931;DHT22;70388;42.698;23.324;2024-02-21T13:16:42;11.30;60.30
80931;DHT22;70388;42.698;23.324;2024-02-21T13:19:08;11.10;60.90
80931;DHT22;70388;42.698;23.324;2024-02-21T13:21:35;11.10;61.80
80931;DHT22;70388;42.698;23.324;2024-02-21T13:24:01;11.10;62.30
80931;DHT22;70388;42.698;23.324;2024-02-21T13:26:26;11.20;61.70
80931;DHT22;70388;42.698;23.324;2024-02-21T13:28:55;11.10;61.10
80931;DHT22;70388;42.698;23.324;2024-02-21T13:31:21;11.20;60.60
80931;DHT22;70388;42.698;23.324;2024-02-21T13:33:46;11.00;60.20
80931;DHT22;70388;42.698;23.324;2024-02-21T13:36:12;11.00;59.70
80931;DHT22;70388;42.698;23.324;2024-02-21T13:38:38;10.90;60.30
80931;DHT22;70388;42.698;23.324;2024-02-21T13:41:07;10.80;60.20
80931;DHT22;70388;42.698;23.324;2024-02-21T13:43:33;10.80;60.80
80931;DHT22;70388;42.698;23.324;2024-02-21T13:46:01;10.90;61.10
80931;DHT22;70388;42.698;23.324;2024-02-21T13:48:30;11.00;61.20
80931;DHT22;70388;42.698;23.324;2024-02-21T13:50:56;11.00;61.10
80931;DHT22;70388;42.698;23.324;2024-02-21T13:53:22;11.00;60.90
80931;DHT22;70388;42.698;23.324;2024-02-21T13:55:49;11.10;61.00
80931;DHT22;70388;42.698;23.324;2024-02-21T13:58:16;11.20;60.90
80931;DHT22;70388;42.698;23.324;2024-02-21T14:00:42;11.30;61.30
80931;DHT22;70388;42.698;23.324;2024-02-21T14:03:08;11.20;61.20
80931;DHT22;70388;42.698;23.324;2024-02-21T14:05:35;11.30;61.70
80931;DHT22;70388;42.698;23.324;2024-02-21T14:08:01;11.20;61.50
80931;DHT22;70388;42.698;23.324;2024-02-21T14:10:26;11.30;61.30
80931;DHT22;70388;42.698;23.324;2024-02-21T14:12:53;11.30;60.30
80931;DHT22;70388;42.698;23.324;2024-02-21T14:15:20;11.20;60.60
80931;DHT22;70388;42.698;23.324;2024-02-21T14:17:46;11.10;61.30
80931;DHT22;70388;42.698;23.324;2024-02-21T14:20:12;11.10;61.40
80931;DHT22;70388;42.698;23.324;2024-02-21T14:22:39;11.10;61.30
80931;DHT22;70388;42.698;23.324;2024-02-21T14:25:05;11.10;61.20
80931;DHT22;70388;42.698;23.324;2024-02-21T14:27:31;11.20;61.10
80931;DHT22;70388;42.698;23.324;2024-02-21T14:29:57;11.20;60.40
80931;DHT22;70388;42.698;23.324;2024-02-21T14:32:23;11.00;60.70
80931;DHT22;70388;42.698;23.324;2024-02-21T14:34:49;11.00;60.90
80931;DHT22;70388;42.698;23.324;2024-02-21T14:37:15;10.90;61.40
80931;DHT22;70388;42.698;23.324;2024-02-21T14:39:41;10.80;61.90
80931;DHT22;70388;42.698;23.324;2024-02-21T14:42:07;10.70;62.30
80931;DHT22;70388;42.698;23.324;2024-02-21T14:44:36;10.60;62.60
80931;DHT22;70388;42.698;23.324;2024-02-21T14:47:02;10.60;63.30
80931;DHT22;70388;42.698;23.324;2024-02-21T14:49:31;10.60;63.60
80931;DHT22;70388;42.698;23.324;2024-02-21T14:51:57;10.60;63.80
80931;DHT22;70388;42.698;23.324;2024-02-21T14:54:23;10.60;63.80
80931;DHT22;70388;42.698;23.324;2024-02-21T14:56:49;10.50;63.30
80931;DHT22;70388;42.698;23.324;2024-02-21T14:59:15;10.50;63.60
80931;DHT22;70388;42.698;23.324;2024-02-21T15:01:44;10.50;63.70
80931;DHT22;70388;42.698;23.324;2024-02-21T15:04:10;10.50;63.70
80931;DHT22;70388;42.698;23.324;2024-02-21T15:06:35;10.50;63.80
80931;DHT22;70388;42.698;23.324;2024-02-21T15:09:04;10.70;63.50
80931;DHT22;70388;42.698;23.324;2024-02-21T15:11:33;10.80;63.20
80931;DHT22;70388;42.698;23.324;2024-02-21T15:13:58;10.70;62.30
80931;DHT22;70388;42.698;23.324;2024-02-21T15:16:24;10.60;62.40
80931;DHT22;70388;42.698;23.324;2024-02-21T15:18:50;10.50;62.70
80931;DHT22;70388;42.698;23.324;2024-02-21T15:21:16;10.60;62.70
80931;DHT22;70388;42.698;23.324;2024-02-21T15:23:42;10.50;63.30